createdAt,value
2023-04-02T00:00:14.846Z,1001.20
2023-04-02T00:01:14.749Z,1000.96
2023-04-02T00:02:14.763Z,1000.96
2023-04-02T00:03:14.741Z,1001.26
2023-04-02T00:04:14.864Z,1001.28
2023-04-02T00:05:14.605Z,1001.30
2023-04-02T00:06:14.539Z,1000.90
2023-04-02T00:07:14.507Z,1001.03
2023-04-02T00:08:14.448Z,1001.07
2023-04-02T00:09:14.429Z,1001.43
2023-04-02T00:10:14.375Z,1001.42
2023-04-02T00:11:14.332Z,1001.16
2023-04-02T00:12:14.286Z,1001.15
2023-04-02T00:13:14.270Z,1001.20
2023-04-02T00:14:14.202Z,1001.21
2023-04-02T00:15:14.197Z,1001.24
2023-04-02T00:16:14.143Z,1001.27
2023-04-02T00:17:14.094Z,1001.58
2023-04-02T00:18:14.039Z,1001.61
2023-04-02T00:19:14.495Z,1001.20
2023-04-02T00:20:13.950Z,1001.62
2023-04-02T00:21:13.924Z,1001.29
2023-04-02T00:22:13.872Z,1001.68
2023-04-02T00:23:13.837Z,1001.27
2023-04-02T00:24:13.799Z,1001.40
2023-04-02T00:25:13.750Z,1001.37
2023-04-02T00:26:13.717Z,1001.42
2023-04-02T00:27:13.672Z,1001.79
2023-04-02T00:28:13.600Z,1001.82
2023-04-02T00:29:13.584Z,1001.82
2023-04-02T00:30:13.549Z,1001.89
2023-04-02T00:31:13.480Z,1001.55
2023-04-02T00:32:13.524Z,1001.56
2023-04-02T00:33:13.446Z,1001.58
2023-04-02T00:34:13.354Z,1001.57
2023-04-02T00:35:13.323Z,1001.95
2023-04-02T00:36:13.289Z,1001.99
2023-04-02T00:37:13.235Z,1002.02
2023-04-02T00:38:13.203Z,1002.01
2023-04-02T00:39:13.163Z,1002.05
2023-04-02T00:40:13.100Z,1001.71
2023-04-02T00:41:13.061Z,1002.01
2023-04-02T00:42:13.024Z,1001.87
2023-04-02T00:43:12.997Z,1002.15
2023-04-02T00:44:12.949Z,1001.83
2023-04-02T00:45:12.908Z,1002.20
2023-04-02T00:46:12.874Z,1001.88
2023-04-02T00:47:12.807Z,1001.86
2023-04-02T00:48:12.764Z,1002.04
2023-04-02T00:49:12.735Z,1002.16
2023-04-02T00:50:12.697Z,1001.93
2023-04-02T00:51:12.636Z,1001.97
2023-04-02T00:52:12.610Z,1002.00
2023-04-02T00:53:12.570Z,1001.99
2023-04-02T00:54:12.520Z,1002.38
2023-04-02T00:55:12.504Z,1002.03
2023-04-02T00:56:12.431Z,1002.01
2023-04-02T00:57:12.421Z,1002.11
2023-04-02T00:58:12.351Z,1002.07
2023-04-02T00:59:12.301Z,1002.47
2023-04-02T01:00:12.258Z,1002.10
2023-04-02T01:01:12.247Z,1002.14
2023-04-02T01:02:12.213Z,1002.13
2023-04-02T01:03:12.216Z,1002.15
2023-04-02T01:04:12.102Z,1002.18
2023-04-02T01:05:12.061Z,1002.47
2023-04-02T01:06:12.019Z,1002.55
2023-04-02T01:07:11.998Z,1002.26
2023-04-02T01:08:11.947Z,1002.27
2023-04-02T01:09:11.891Z,1002.63
2023-04-02T01:10:11.842Z,1002.65
2023-04-02T01:11:11.805Z,1002.23
2023-04-02T01:12:11.756Z,1002.28
2023-04-02T01:13:11.721Z,1002.29
2023-04-02T01:14:11.701Z,1002.31
2023-04-02T01:15:11.626Z,1002.67
2023-04-02T01:16:11.652Z,1002.35
2023-04-02T01:17:11.529Z,1002.35
2023-04-02T01:18:11.492Z,1002.38
2023-04-02T01:19:11.473Z,1002.81
2023-04-02T01:20:11.407Z,1002.42
2023-04-02T01:21:11.397Z,1002.47
2023-04-02T01:22:11.335Z,1002.74
2023-04-02T01:23:11.315Z,1002.50
2023-04-02T01:24:11.246Z,1002.46
2023-04-02T01:25:11.205Z,1002.56
2023-04-02T01:26:11.165Z,1002.61
2023-04-02T01:27:20.791Z,1002.57
2023-04-02T01:28:11.069Z,1002.92
2023-04-02T01:29:11.031Z,1002.59
2023-04-02T01:30:10.981Z,1002.63
2023-04-02T01:31:11.762Z,1002.63
2023-04-02T01:32:10.915Z,1002.69
2023-04-02T01:33:10.853Z,1002.68
2023-04-02T01:34:10.827Z,1002.70
2023-04-02T01:35:10.771Z,1002.71
2023-04-02T01:36:10.758Z,1002.70
2023-04-02T01:37:10.685Z,1002.72
2023-04-02T01:38:10.672Z,1002.76
2023-04-02T01:39:10.619Z,1003.10
2023-04-02T01:40:10.548Z,1002.88
2023-04-02T01:41:10.528Z,1002.79
2023-04-02T01:42:10.461Z,1003.13
2023-04-02T01:43:10.431Z,1002.83
2023-04-02T01:44:10.379Z,1002.83
2023-04-02T01:45:10.341Z,1002.87
2023-04-02T01:46:10.319Z,1003.11
2023-04-02T01:47:10.294Z,1002.92
2023-04-02T01:48:10.265Z,1002.88
2023-04-02T01:49:10.178Z,1002.88
2023-04-02T01:50:10.138Z,1002.93
2023-04-02T01:51:10.099Z,1003.31
2023-04-02T01:52:10.037Z,1002.97
2023-04-02T01:53:10.005Z,1003.22
2023-04-02T01:54:09.951Z,1002.95
2023-04-02T01:55:09.924Z,1003.16
2023-04-02T01:56:09.885Z,1003.01
2023-04-02T01:57:09.888Z,1002.99
2023-04-02T01:58:09.789Z,1003.13
2023-04-02T01:59:09.748Z,1003.03
2023-04-02T02:00:09.694Z,1003.06
2023-04-02T02:01:09.729Z,1003.23
2023-04-02T02:02:09.641Z,1003.05
2023-04-02T02:03:09.619Z,1003.35
2023-04-02T02:04:09.561Z,1003.25
2023-04-02T02:05:09.484Z,1003.12
2023-04-02T02:06:09.436Z,1003.25
2023-04-02T02:07:09.428Z,1003.24
2023-04-02T02:08:09.352Z,1003.27
2023-04-02T02:09:09.325Z,1003.21
2023-04-02T02:10:09.269Z,1003.33
2023-04-02T02:11:09.231Z,1003.60
2023-04-02T02:12:09.184Z,1003.52
2023-04-02T02:13:09.166Z,1003.67
2023-04-02T02:14:09.105Z,1003.30
2023-04-02T02:15:09.060Z,1003.37
2023-04-02T02:16:09.082Z,1003.35
2023-04-02T02:17:08.993Z,1003.39
2023-04-02T02:18:08.933Z,1003.61
2023-04-02T02:19:08.897Z,1003.58
2023-04-02T02:20:08.847Z,1004.04
2023-04-02T02:21:08.836Z,1003.54
2023-04-02T02:22:08.772Z,1003.54
2023-04-02T02:23:08.734Z,1003.92
2023-04-02T02:24:08.673Z,1004.02
2023-04-02T02:25:08.635Z,1003.88
2023-04-02T02:26:08.594Z,1003.64
2023-04-02T02:27:08.547Z,1003.91
2023-04-02T02:28:08.541Z,1003.63
2023-04-02T02:29:08.492Z,1003.99
2023-04-02T02:30:08.423Z,1003.53
2023-04-02T02:31:08.376Z,1004.00
2023-04-02T02:32:08.405Z,1003.69
2023-04-02T02:33:08.291Z,1003.73
2023-04-02T02:34:08.270Z,1004.03
2023-04-02T02:35:08.218Z,1004.10
2023-04-02T02:36:08.201Z,1004.19
2023-04-02T02:37:08.126Z,1004.16
2023-04-02T02:38:08.079Z,1003.82
2023-04-02T02:39:08.045Z,1003.81
2023-04-02T02:40:08.004Z,1003.94
2023-04-02T02:41:07.953Z,1003.92
2023-04-02T02:42:07.918Z,1004.03
2023-04-02T02:43:07.873Z,1003.94
2023-04-02T02:44:07.841Z,1003.92
2023-04-02T02:45:07.783Z,1003.91
2023-04-02T02:46:07.764Z,1003.95
2023-04-02T02:47:07.705Z,1003.98
2023-04-02T02:48:07.680Z,1004.04
2023-04-02T02:49:07.635Z,1004.04
2023-04-02T02:50:07.563Z,1004.10
2023-04-02T02:51:07.529Z,1004.08
2023-04-02T02:52:07.489Z,1004.11
2023-04-02T02:53:07.438Z,1004.17
2023-04-02T02:54:07.419Z,1004.47
2023-04-02T02:55:07.348Z,1004.50
2023-04-02T02:56:07.312Z,1004.23
2023-04-02T02:57:07.320Z,1004.20
2023-04-02T02:58:07.226Z,1004.54
2023-04-02T02:59:07.175Z,1004.52
2023-04-02T03:00:07.140Z,1004.58
2023-04-02T03:01:07.115Z,1004.57
2023-04-02T03:02:07.215Z,1004.32
2023-04-02T03:03:07.172Z,1004.60
2023-04-02T03:04:07.088Z,1004.71
2023-04-02T03:05:06.927Z,1004.71
2023-04-02T03:06:06.893Z,1004.76
2023-04-02T03:07:06.837Z,1004.74
2023-04-02T03:08:06.791Z,1004.30
2023-04-02T03:09:06.757Z,1004.46
2023-04-02T03:10:06.711Z,1004.46
2023-04-02T03:11:06.675Z,1004.46
2023-04-02T03:12:06.634Z,1004.72
2023-04-02T03:13:06.576Z,1004.48
2023-04-02T03:14:06.787Z,1004.57
2023-04-02T03:15:06.516Z,1004.55
2023-04-02T03:16:06.509Z,1004.57
2023-04-02T03:17:06.404Z,1004.69
2023-04-02T03:18:06.380Z,1004.68
2023-04-02T03:19:06.332Z,1004.72
2023-04-02T03:20:06.307Z,1004.62
2023-04-02T03:21:06.242Z,1004.76
2023-04-02T03:22:06.190Z,1004.76
2023-04-02T03:23:06.143Z,1004.80
2023-04-02T03:24:06.370Z,1004.79
2023-04-02T03:25:06.066Z,1004.78
2023-04-02T03:26:06.034Z,1005.39
2023-04-02T03:27:05.974Z,1004.84
2023-04-02T03:28:05.943Z,1004.89
2023-04-02T03:29:05.903Z,1005.01
2023-04-02T03:30:05.859Z,1005.14
2023-04-02T03:31:05.843Z,1004.81
2023-04-02T03:32:05.801Z,1005.09
2023-04-02T03:33:05.792Z,1004.88
2023-04-02T03:34:05.692Z,1005.17
2023-04-02T03:35:05.640Z,1004.87
2023-04-02T03:36:05.659Z,1004.96
2023-04-02T03:37:05.551Z,1005.28
2023-04-02T03:38:05.507Z,1004.99
2023-04-02T03:39:05.460Z,1005.20
2023-04-02T03:40:05.421Z,1005.42
2023-04-02T03:41:05.419Z,1005.07
2023-04-02T03:42:05.378Z,1005.46
2023-04-02T03:43:05.296Z,1005.58
2023-04-02T03:44:05.252Z,1005.69
2023-04-02T03:45:05.210Z,1005.57
2023-04-02T03:46:05.210Z,1005.50
2023-04-02T03:47:05.124Z,1005.52
2023-04-02T03:48:05.124Z,1005.47
2023-04-02T03:49:05.037Z,1005.29
2023-04-02T03:50:05.022Z,1005.60
2023-04-02T03:51:04.948Z,1005.34
2023-04-02T03:52:04.936Z,1005.29
2023-04-02T03:53:04.859Z,1005.45
2023-04-02T03:54:04.830Z,1005.49
2023-04-02T03:55:04.803Z,1005.47
2023-04-02T03:56:04.740Z,1005.48
2023-04-02T03:57:04.709Z,1005.91
2023-04-02T03:58:04.669Z,1005.94
2023-04-02T03:59:04.610Z,1005.86
2023-04-02T04:00:04.564Z,1005.67
2023-04-02T04:01:04.531Z,1006.12
2023-04-02T04:02:04.521Z,1006.07
2023-04-02T04:03:04.461Z,1006.11
2023-04-02T04:04:04.419Z,1005.75
2023-04-02T04:05:04.351Z,1005.84
2023-04-02T04:06:04.309Z,1005.73
2023-04-02T04:07:04.267Z,1005.72
2023-04-02T04:08:04.226Z,1005.71
2023-04-02T04:09:04.172Z,1005.88
2023-04-02T04:10:04.137Z,1006.15
2023-04-02T04:11:04.146Z,1005.82
2023-04-02T04:12:04.050Z,1005.87
2023-04-02T04:13:04.001Z,1005.90
2023-04-02T04:14:03.955Z,1005.87
2023-04-02T04:15:03.917Z,1006.00
2023-04-02T04:16:03.891Z,1006.02
2023-04-02T04:17:03.863Z,1005.94
2023-04-02T04:18:03.806Z,1006.07
2023-04-02T04:19:03.741Z,1006.08
2023-04-02T04:20:03.699Z,1006.08
2023-04-02T04:21:03.659Z,1006.00
2023-04-02T04:22:03.613Z,1006.04
2023-04-02T04:23:03.569Z,1006.40
2023-04-02T04:24:03.544Z,1006.00
2023-04-02T04:25:03.479Z,1006.12
2023-04-02T04:26:03.456Z,1006.36
2023-04-02T04:27:03.395Z,1006.24
2023-04-02T04:28:03.358Z,1006.16
2023-04-02T04:29:03.312Z,1006.21
2023-04-02T04:30:03.273Z,1006.20
2023-04-02T04:31:03.231Z,1006.27
2023-04-02T04:32:03.204Z,1006.36
2023-04-02T04:33:03.199Z,1006.34
2023-04-02T04:34:03.103Z,1006.34
2023-04-02T04:35:03.055Z,1006.43
2023-04-02T04:36:03.048Z,1006.37
2023-04-02T04:37:02.959Z,1006.36
2023-04-02T04:38:02.950Z,1006.75
2023-04-02T04:39:02.876Z,1006.46
2023-04-02T04:40:02.835Z,1006.78
2023-04-02T04:41:02.784Z,1006.47
2023-04-02T04:42:02.776Z,1006.56
2023-04-02T04:43:02.713Z,1006.56
2023-04-02T04:44:02.664Z,1006.56
2023-04-02T04:45:02.629Z,1006.58
2023-04-02T04:46:02.614Z,1006.72
2023-04-02T04:47:02.537Z,1006.79
2023-04-02T04:48:02.539Z,1006.66
2023-04-02T04:49:02.807Z,1006.72
2023-04-02T04:50:02.408Z,1007.09
2023-04-02T04:51:02.362Z,1006.73
2023-04-02T04:52:02.316Z,1006.72
2023-04-02T04:53:02.278Z,1006.79
2023-04-02T04:54:02.276Z,1006.83
2023-04-02T04:55:02.183Z,1006.96
2023-04-02T04:56:12.570Z,1006.82
2023-04-02T04:57:02.180Z,1006.89
2023-04-02T04:58:02.066Z,1007.23
2023-04-02T04:59:02.030Z,1006.97
2023-04-02T05:00:01.982Z,1007.07
2023-04-02T05:01:02.017Z,1007.05
2023-04-02T05:02:01.899Z,1007.21
2023-04-02T05:03:01.891Z,1007.40
2023-04-02T05:04:01.802Z,1007.38
2023-04-02T05:05:01.776Z,1007.48
2023-04-02T05:06:01.706Z,1007.13
2023-04-02T05:07:01.682Z,1007.13
2023-04-02T05:08:01.627Z,1007.20
2023-04-02T05:09:01.597Z,1007.17
2023-04-02T05:10:01.602Z,1007.54
2023-04-02T05:11:01.495Z,1007.74
2023-04-02T05:12:01.462Z,1007.59
2023-04-02T05:13:01.410Z,1007.30
2023-04-02T05:14:01.360Z,1007.62
2023-04-02T05:15:01.332Z,1007.45
2023-04-02T05:16:01.553Z,1007.33
2023-04-02T05:17:01.232Z,1007.35
2023-04-02T05:18:01.227Z,1007.77
2023-04-02T05:19:01.152Z,1007.36
2023-04-02T05:20:01.108Z,1007.45
2023-04-02T05:21:01.077Z,1007.42
2023-04-02T05:22:01.022Z,1007.50
2023-04-02T05:23:00.988Z,1007.46
2023-04-02T05:24:00.928Z,1007.56
2023-04-02T05:25:00.884Z,1007.55
2023-04-02T05:26:00.854Z,1007.53
2023-04-02T05:27:00.806Z,1007.66
2023-04-02T05:28:00.767Z,1007.62
2023-04-02T05:29:00.712Z,1007.68
2023-04-02T05:30:00.693Z,1007.69
2023-04-02T05:31:00.642Z,1007.73
2023-04-02T05:32:00.577Z,1008.11
2023-04-02T05:33:00.618Z,1007.84
2023-04-02T05:34:00.508Z,1007.84
2023-04-02T05:35:00.452Z,1008.21
2023-04-02T05:36:00.459Z,1008.27
2023-04-02T05:37:00.369Z,1008.22
2023-04-02T05:38:00.338Z,1007.92
2023-04-02T05:39:00.281Z,1007.96
2023-04-02T05:40:00.253Z,1007.91
2023-04-02T05:41:00.208Z,1007.96
2023-04-02T05:42:00.153Z,1007.99
2023-04-02T05:43:00.142Z,1008.01
2023-04-02T05:44:00.082Z,1008.07
2023-04-02T05:45:00.033Z,1008.43
2023-04-02T05:45:59.982Z,1008.37
2023-04-02T05:46:59.962Z,1008.40
2023-04-02T05:48:00.020Z,1008.07
2023-04-02T05:48:59.845Z,1008.13
2023-04-02T05:49:59.814Z,1008.55
2023-04-02T05:50:59.767Z,1008.21
2023-04-02T05:51:59.734Z,1008.25
2023-04-02T05:52:59.671Z,1008.23
2023-04-02T05:53:59.641Z,1008.42
2023-04-02T05:54:59.590Z,1008.69
2023-04-02T05:55:59.570Z,1008.34
2023-04-02T05:56:59.522Z,1008.40
2023-04-02T05:58:21.275Z,1008.75
2023-04-02T05:58:59.537Z,1008.38
2023-04-02T05:59:59.383Z,1008.43
2023-04-02T06:00:59.327Z,1008.52
2023-04-02T06:01:59.345Z,1008.49
2023-04-02T06:02:59.310Z,1008.49
2023-04-02T06:03:59.227Z,1008.56
2023-04-02T06:04:59.147Z,1008.66
2023-04-02T06:05:59.124Z,1008.52
2023-04-02T06:06:59.076Z,1008.66
2023-04-02T06:07:59.019Z,1008.67
2023-04-02T06:08:58.974Z,1008.59
2023-04-02T06:09:58.938Z,1008.68
2023-04-02T06:10:58.884Z,1008.65
2023-04-02T06:11:58.847Z,1008.89
2023-04-02T06:12:58.815Z,1008.74
2023-04-02T06:13:58.760Z,1009.09
2023-04-02T06:14:58.724Z,1008.88
2023-04-02T06:15:58.675Z,1008.91
2023-04-02T06:16:58.757Z,1008.84
2023-04-02T06:17:58.641Z,1009.22
2023-04-02T06:18:58.552Z,1009.06
2023-04-02T06:19:58.495Z,1008.93
2023-04-02T06:20:58.448Z,1008.92
2023-04-02T06:21:58.410Z,1009.25
2023-04-02T06:22:58.362Z,1008.99
2023-04-02T06:23:58.337Z,1009.01
2023-04-02T06:24:58.284Z,1008.97
2023-04-02T06:25:58.237Z,1009.22
2023-04-02T06:26:58.189Z,1009.07
2023-04-02T06:27:58.148Z,1009.34
2023-04-02T06:28:58.125Z,1009.42
2023-04-02T06:29:58.070Z,1009.46
2023-04-02T06:30:58.049Z,1009.40
2023-04-02T06:31:58.014Z,1009.43
2023-04-02T06:32:57.997Z,1009.11
2023-04-02T06:33:57.915Z,1009.29
2023-04-02T06:34:57.851Z,1009.22
2023-04-02T06:35:57.825Z,1009.57
2023-04-02T06:36:57.762Z,1009.31
2023-04-02T06:37:57.729Z,1009.27
2023-04-02T06:38:57.676Z,1009.25
2023-04-02T06:39:57.641Z,1009.32
2023-04-02T06:40:58.910Z,1009.28
2023-04-02T06:41:57.545Z,1009.31
2023-04-02T06:42:57.502Z,1009.30
2023-04-02T06:43:57.454Z,1009.36
2023-04-02T06:44:57.413Z,1009.75
2023-04-02T06:45:57.401Z,1009.76
2023-04-02T06:46:57.329Z,1009.86
2023-04-02T06:47:57.314Z,1009.42
2023-04-02T06:49:06.387Z,1009.84
2023-04-02T06:49:57.215Z,1009.90
2023-04-02T06:50:57.161Z,1009.56
2023-04-02T06:51:57.107Z,1009.59
2023-04-02T06:52:57.063Z,1009.95
2023-04-02T06:53:57.047Z,1009.83
2023-04-02T06:54:57.051Z,1009.95
2023-04-02T06:55:56.947Z,1009.96
2023-04-02T06:56:57.860Z,1009.99
2023-04-02T06:58:11.403Z,1010.00
2023-04-02T06:58:56.856Z,1009.88
2023-04-02T06:59:56.830Z,1009.93
2023-04-02T07:00:58.508Z,1009.77
2023-04-02T07:01:57.470Z,1009.80
2023-04-02T07:02:56.694Z,1009.76
2023-04-02T07:03:56.577Z,1010.12
2023-04-02T07:04:56.706Z,1009.81
2023-04-02T07:05:56.503Z,1009.84
2023-04-02T07:06:56.451Z,1009.90
2023-04-02T07:07:56.421Z,1009.91
2023-04-02T07:08:56.359Z,1010.25
2023-04-02T07:09:56.319Z,1010.32
2023-04-02T07:10:56.290Z,1009.96
2023-04-02T07:11:56.239Z,1010.31
2023-04-02T07:12:56.195Z,1010.10
2023-04-02T07:13:56.143Z,1010.12
2023-04-02T07:14:56.105Z,1010.41
2023-04-02T07:15:56.078Z,1010.19
2023-04-02T07:16:56.018Z,1010.25
2023-04-02T07:17:56.135Z,1010.51
2023-04-02T07:18:55.931Z,1010.47
2023-04-02T07:19:55.878Z,1010.57
2023-04-02T07:20:55.839Z,1010.23
2023-04-02T07:21:55.789Z,1010.28
2023-04-02T07:22:55.758Z,1010.24
2023-04-02T07:23:55.722Z,1010.31
2023-04-02T07:24:55.693Z,1010.26
2023-04-02T07:25:55.672Z,1010.30
2023-04-02T07:26:55.585Z,1010.63
2023-04-02T07:27:55.540Z,1010.69
2023-04-02T07:28:55.529Z,1010.35
2023-04-02T07:29:55.448Z,1010.37
2023-04-02T07:30:55.415Z,1010.72
2023-04-02T07:31:55.478Z,1010.79
2023-04-02T07:32:55.398Z,1010.76
2023-04-02T07:33:55.323Z,1010.57
2023-04-02T07:34:55.246Z,1010.78
2023-04-02T07:35:55.268Z,1010.41
2023-04-02T07:36:55.159Z,1010.46
2023-04-02T07:37:55.122Z,1010.82
2023-04-02T07:38:55.071Z,1010.50
2023-04-02T07:39:55.144Z,1010.63
2023-04-02T07:40:55.004Z,1010.55
2023-04-02T07:41:54.945Z,1010.59
2023-04-02T07:42:54.896Z,1010.63
2023-04-02T07:43:54.854Z,1010.95
2023-04-02T07:44:54.798Z,1010.66
2023-04-02T07:45:54.775Z,1010.71
2023-04-02T07:46:54.787Z,1010.98
2023-04-02T07:47:54.701Z,1011.06
2023-04-02T07:48:54.673Z,1011.07
2023-04-02T07:49:54.593Z,1011.11
2023-04-02T07:50:54.542Z,1011.17
2023-04-02T07:51:54.523Z,1011.16
2023-04-02T07:52:54.469Z,1011.16
2023-04-02T07:53:54.422Z,1011.22
2023-04-02T07:54:54.406Z,1011.25
2023-04-02T07:55:54.333Z,1010.91
2023-04-02T07:56:54.384Z,1010.94
2023-04-02T07:57:54.243Z,1011.33
2023-04-02T07:58:54.210Z,1010.89
2023-04-02T07:59:54.145Z,1011.00
2023-04-02T08:00:54.126Z,1010.95
2023-04-02T08:01:54.112Z,1011.05
2023-04-02T08:02:54.136Z,1011.05
2023-04-02T08:03:54.550Z,1011.00
2023-04-02T08:04:53.938Z,1011.07
2023-04-02T08:05:53.886Z,1011.12
2023-04-02T08:06:53.885Z,1011.11
2023-04-02T08:07:53.827Z,1011.49
2023-04-02T08:08:53.773Z,1011.46
2023-04-02T08:09:53.737Z,1011.48
2023-04-02T08:10:53.696Z,1011.23
2023-04-02T08:11:53.628Z,1011.20
2023-04-02T08:12:53.594Z,1011.57
2023-04-02T08:13:53.550Z,1011.64
2023-04-02T08:14:54.388Z,1011.28
2023-04-02T08:15:53.473Z,1011.28
2023-04-02T08:16:53.492Z,1011.29
2023-04-02T08:17:53.442Z,1011.67
2023-04-02T08:18:53.337Z,1011.43
2023-04-02T08:19:55.045Z,1011.39
2023-04-02T08:20:53.260Z,1011.43
2023-04-02T08:21:53.202Z,1011.47
2023-04-02T08:22:53.168Z,1011.81
2023-04-02T08:23:53.145Z,1011.88
2023-04-02T08:24:53.081Z,1011.89
2023-04-02T08:25:53.049Z,1011.71
2023-04-02T08:26:53.006Z,1011.67
2023-04-02T08:27:52.965Z,1011.73
2023-04-02T08:28:52.929Z,1011.63
2023-04-02T08:29:52.881Z,1011.68
2023-04-02T08:30:52.892Z,1012.09
2023-04-02T08:31:52.775Z,1012.20
2023-04-02T08:32:52.788Z,1011.83
2023-04-02T08:33:52.690Z,1011.86
2023-04-02T08:34:52.660Z,1011.93
2023-04-02T08:35:52.648Z,1012.38
2023-04-02T08:36:52.568Z,1012.03
2023-04-02T08:37:52.540Z,1012.27
2023-04-02T08:38:52.480Z,1011.94
2023-04-02T08:39:52.452Z,1011.95
2023-04-02T08:40:52.397Z,1012.16
2023-04-02T08:41:52.390Z,1012.01
2023-04-02T08:42:52.317Z,1012.03
2023-04-02T08:43:52.268Z,1012.50
2023-04-02T08:44:52.298Z,1012.43
2023-04-02T08:45:52.393Z,1012.45
2023-04-02T08:46:52.143Z,1012.39
2023-04-02T08:47:52.132Z,1012.17
2023-04-02T08:48:52.057Z,1012.55
2023-04-02T08:49:52.008Z,1012.58
2023-04-02T08:50:52.003Z,1012.54
2023-04-02T08:51:51.919Z,1012.56
2023-04-02T08:52:51.899Z,1012.27
2023-04-02T08:53:51.839Z,1012.33
2023-04-02T08:54:52.339Z,1012.65
2023-04-02T08:55:51.748Z,1012.69
2023-04-02T08:56:51.765Z,1012.39
2023-04-02T08:57:51.664Z,1012.77
2023-04-02T08:58:51.643Z,1012.64
2023-04-02T08:59:51.579Z,1012.89
2023-04-02T09:00:51.554Z,1012.95
2023-04-02T09:01:51.535Z,1012.60
2023-04-02T09:02:51.485Z,1012.96
2023-04-02T09:03:51.425Z,1012.90
2023-04-02T09:04:51.436Z,1012.85
2023-04-02T09:05:51.354Z,1013.15
2023-04-02T09:06:51.289Z,1013.06
2023-04-02T09:07:51.240Z,1012.91
2023-04-02T09:08:51.209Z,1012.77
2023-04-02T09:09:51.182Z,1012.80
2023-04-02T09:10:51.134Z,1012.83
2023-04-02T09:11:51.088Z,1012.84
2023-04-02T09:12:51.040Z,1013.29
2023-04-02T09:13:50.994Z,1013.19
2023-04-02T09:14:50.947Z,1012.91
2023-04-02T09:15:50.936Z,1012.95
2023-04-02T09:16:50.888Z,1012.89
2023-04-02T09:17:54.541Z,1012.97
2023-04-02T09:18:50.782Z,1012.98
2023-04-02T09:19:50.748Z,1013.37
2023-04-02T09:20:50.719Z,1013.03
2023-04-02T09:21:50.682Z,1013.40
2023-04-02T09:22:50.620Z,1013.05
2023-04-02T09:23:50.592Z,1013.15
2023-04-02T09:24:50.560Z,1013.50
2023-04-02T09:26:02.995Z,1013.13
2023-04-02T09:26:50.470Z,1013.64
2023-04-02T09:27:50.407Z,1013.27
2023-04-02T09:28:50.377Z,1013.36
2023-04-02T09:29:50.345Z,1013.41
2023-04-02T09:30:50.318Z,1014.08
2023-04-02T09:31:50.269Z,1013.59
2023-04-02T09:32:55.235Z,1014.02
2023-04-02T09:33:50.164Z,1013.90
2023-04-02T09:34:54.332Z,1013.84
2023-04-02T09:35:50.129Z,1014.21
2023-04-02T09:36:50.045Z,1014.00
2023-04-02T09:37:49.998Z,1014.05
2023-04-02T09:38:49.958Z,1014.16
2023-04-02T09:39:49.922Z,1014.20
2023-04-02T09:40:49.918Z,1014.23
2023-04-02T09:41:59.105Z,1014.24
2023-04-02T09:42:49.805Z,1014.16
2023-04-02T09:43:49.761Z,1014.15
2023-04-02T09:44:49.728Z,1014.22
2023-04-02T09:45:49.688Z,1014.66
2023-04-02T09:46:49.654Z,1014.13
2023-04-02T09:47:49.641Z,1014.31
2023-04-02T09:48:49.565Z,1014.60
2023-04-02T09:49:49.521Z,1014.23
2023-04-02T09:50:49.487Z,1014.26
2023-04-02T09:51:49.436Z,1014.25
2023-04-02T09:52:49.412Z,1014.32
2023-04-02T09:53:49.463Z,1014.45
2023-04-02T09:54:49.318Z,1014.66
2023-04-02T09:55:49.276Z,1014.98
2023-04-02T09:56:49.270Z,1014.62
2023-04-02T09:57:49.194Z,1014.96
2023-04-02T09:58:49.168Z,1014.96
2023-04-02T09:59:49.164Z,1014.58
2023-04-02T10:00:49.106Z,1014.56
2023-04-02T10:01:49.037Z,1014.94
2023-04-02T10:02:49.031Z,1014.60
2023-04-02T10:03:48.972Z,1014.57
2023-04-02T10:04:48.968Z,1014.91
2023-04-02T10:05:48.895Z,1014.59
2023-04-02T10:06:48.839Z,1014.65
2023-04-02T10:07:48.815Z,1015.10
2023-04-02T10:08:48.796Z,1014.82
2023-04-02T10:09:48.792Z,1014.87
2023-04-02T10:10:48.690Z,1014.83
2023-04-02T10:11:48.653Z,1014.98
2023-04-02T10:12:48.617Z,1015.00
2023-04-02T10:13:48.566Z,1014.99
2023-04-02T10:14:48.565Z,1015.17
2023-04-02T10:15:48.483Z,1015.07
2023-04-02T10:16:48.506Z,1014.94
2023-04-02T10:17:48.485Z,1015.39
2023-04-02T10:18:48.376Z,1015.04
2023-04-02T10:19:48.332Z,1015.36
2023-04-02T10:20:51.374Z,1015.28
2023-04-02T10:21:48.255Z,1015.67
2023-04-02T10:22:48.309Z,1015.16
2023-04-02T10:23:48.208Z,1015.33
2023-04-02T10:24:48.172Z,1015.49
2023-04-02T10:25:48.141Z,1015.49
2023-04-02T10:26:48.073Z,1015.70
2023-04-02T10:27:48.028Z,1015.40
2023-04-02T10:28:47.991Z,1015.66
2023-04-02T10:29:47.956Z,1015.25
2023-04-02T10:30:47.964Z,1015.58
2023-04-02T10:31:47.880Z,1015.57
2023-04-02T10:32:47.932Z,1015.68
2023-04-02T10:33:47.808Z,1015.35
2023-04-02T10:34:47.774Z,1015.63
2023-04-02T10:35:47.761Z,1015.61
2023-04-02T10:36:47.712Z,1015.31
2023-04-02T10:37:47.662Z,1015.72
2023-04-02T10:38:47.630Z,1015.76
2023-04-02T10:39:47.612Z,1015.82
2023-04-02T10:40:47.585Z,1015.73
2023-04-02T10:41:47.526Z,1015.70
2023-04-02T10:42:47.496Z,1015.62
2023-04-02T10:43:47.497Z,1015.62
2023-04-02T10:44:47.401Z,1015.61
2023-04-02T10:45:47.375Z,1015.90
2023-04-02T10:46:47.342Z,1015.47
2023-04-02T10:47:47.308Z,1015.82
2023-04-02T10:48:47.263Z,1015.86
2023-04-02T10:49:47.239Z,1015.59
2023-04-02T10:50:47.179Z,1015.46
2023-04-02T10:51:47.140Z,1015.85
2023-04-02T10:52:47.124Z,1015.54
2023-04-02T10:53:47.061Z,1015.58
2023-04-02T10:54:47.074Z,1015.69
2023-04-02T10:55:46.998Z,1015.71
2023-04-02T10:56:51.201Z,1016.00
2023-04-02T10:57:46.941Z,1015.78
2023-04-02T10:58:46.894Z,1015.89
2023-04-02T10:59:46.844Z,1016.19
2023-04-02T11:00:46.828Z,1016.15
2023-04-02T11:01:46.794Z,1015.87
2023-04-02T11:02:46.814Z,1015.89
2023-04-02T11:03:46.798Z,1015.86
2023-04-02T11:04:46.661Z,1016.04
2023-04-02T11:05:46.653Z,1016.29
2023-04-02T11:06:46.585Z,1016.31
2023-04-02T11:07:46.548Z,1016.55
2023-04-02T11:08:46.512Z,1016.43
2023-04-02T11:09:46.477Z,1015.89
2023-04-02T11:10:46.444Z,1016.34
2023-04-02T11:11:46.420Z,1016.13
2023-04-02T11:12:46.378Z,1016.10
2023-04-02T11:13:46.332Z,1016.12
2023-04-02T11:14:46.294Z,1016.02
2023-04-02T11:15:46.272Z,1016.08
2023-04-02T11:16:46.311Z,1016.08
2023-04-02T11:17:46.244Z,1016.11
2023-04-02T11:18:46.161Z,1016.19
2023-04-02T11:19:46.124Z,1016.20
2023-04-02T11:20:46.073Z,1016.18
2023-04-02T11:21:57.911Z,1016.12
2023-04-02T11:22:46.073Z,1016.46
2023-04-02T11:23:45.963Z,1016.23
2023-04-02T11:24:45.936Z,1016.09
2023-04-02T11:25:45.919Z,1016.49
2023-04-02T11:26:45.844Z,1016.70
2023-04-02T11:27:45.810Z,1016.33
2023-04-02T11:28:45.780Z,1016.31
2023-04-02T11:29:45.768Z,1016.33
2023-04-02T11:30:45.693Z,1016.75
2023-04-02T11:31:45.713Z,1016.81
2023-04-02T11:32:45.636Z,1016.49
2023-04-02T11:33:47.376Z,1016.37
2023-04-02T11:34:46.295Z,1016.82
2023-04-02T11:35:45.577Z,1016.75
2023-04-02T11:36:45.463Z,1016.42
2023-04-02T11:37:45.420Z,1016.47
2023-04-02T11:38:45.404Z,1016.76
2023-04-02T11:39:45.351Z,1016.49
2023-04-02T11:40:45.322Z,1016.46
2023-04-02T11:41:45.276Z,1016.76
2023-04-02T11:42:45.238Z,1016.52
2023-04-02T11:43:45.191Z,1016.78
2023-04-02T11:44:45.152Z,1016.49
2023-04-02T11:45:52.985Z,1016.54
2023-04-02T11:46:45.109Z,1016.94
2023-04-02T11:47:45.066Z,1016.58
2023-04-02T11:48:45.026Z,1016.93
2023-04-02T11:49:44.959Z,1016.85
2023-04-02T11:50:44.953Z,1016.72
2023-04-02T11:51:44.889Z,1016.65
2023-04-02T11:52:44.858Z,1016.67
2023-04-02T11:53:44.812Z,1016.70
2023-04-02T11:54:44.792Z,1016.64
2023-04-02T11:55:44.749Z,1016.96
2023-04-02T11:56:44.689Z,1017.01
2023-04-02T11:57:44.659Z,1016.61
2023-04-02T11:58:44.629Z,1016.67
2023-04-02T11:59:44.585Z,1016.44
2023-04-02T12:00:44.533Z,1016.93
2023-04-02T12:01:44.537Z,1017.01
2023-04-02T12:02:44.557Z,1016.98
2023-04-02T12:03:44.432Z,1016.88
2023-04-02T12:04:44.430Z,1017.06